Terminal Aerodrome Forecast
Issued by NWS

Home | Current Version | Previous Version | Text Only | Print | Product List | Glossary On
Versions: 1 2 3 4 5 6 7 8 9 10 11 12 13
000
FTUS41 KCAR 281122
TAFFVE
TAF
KFVE 281122Z 2812/2912 00000KT P6SM BKN250
     FM281700 16004KT 3SM -SHRA OVC050
     FM290400 16006KT P6SM BKN045
     FM290600 17007KT P6SM BKN008=

USA.gov is the U.S. government's official web portal to all federal, state and local government web resources and services.